Terminal Aerodrome Forecast
Issued by NWS

Home | Current Version | Previous Version | Text Only | Print | Product List | Glossary On
Versions: 1 2 3 4 5 6 7 8 9 10 11 12 13 14 15 16 17 18 19 20 21 22 23 24 25 26 27 28 29 30 31 32 33 34 35 36 37 38 39 40 41 42 43 44 45 46 47 48 49 50
000
FTUS45 KBOU 061758
TAFBJC
TAF
KBJC 061758Z 0618/0718 00000KT P6SM FEW020 BKN070 OVC120
     FM062100 03008KT P6SM SCT030 OVC060
      TEMPO 0621/0701 VRB15G25KT 4SM SHRA BKN025
     FM070200 04008KT P6SM SCT010 OVC020
     FM070600 04006KT P6SM SCT004 OVC008
     FM071000 00000KT 1SM BR OVC004
     FM071500 00000KT 4SM BR OVC010=

USA.gov is the U.S. government's official web portal to all federal, state and local government web resources and services.